createdAt,value
2022-08-20T00:01:09.941Z,23.42
2022-08-20T00:03:53.209Z,22.87
2022-08-20T00:06:30.139Z,22.75
2022-08-20T00:09:04.861Z,22.85
2022-08-20T00:11:41.820Z,22.84
2022-08-20T00:14:17.711Z,22.74
2022-08-20T00:16:54.927Z,22.52
2022-08-20T00:19:35.320Z,22.60
2022-08-20T00:22:09.826Z,22.84
2022-08-20T00:24:44.760Z,22.86
2022-08-20T00:27:18.840Z,22.62
2022-08-20T00:29:55.379Z,22.72
2022-08-20T00:32:29.698Z,22.62
2022-08-20T00:35:04.289Z,22.75
2022-08-20T00:37:38.487Z,23.09
2022-08-20T00:40:22.211Z,23.31
2022-08-20T00:43:02.536Z,23.49
2022-08-20T00:45:38.304Z,23.60
2022-08-20T00:48:12.451Z,23.49
2022-08-20T00:50:46.923Z,23.50
2022-08-20T00:53:23.499Z,23.38
2022-08-20T00:55:58.358Z,23.54
2022-08-20T00:58:33.364Z,23.02
2022-08-20T01:01:10.753Z,23.16
2022-08-20T02:59:36.878Z,22.64
2022-08-20T07:05:16.456Z,21.82
2022-08-20T07:07:51.216Z,21.75
2022-08-20T07:10:26.122Z,21.80
2022-08-20T07:13:00.531Z,21.67
2022-08-20T07:15:34.820Z,21.88
2022-08-20T07:18:12.367Z,21.74
2022-08-20T07:20:47.959Z,21.85
2022-08-20T07:23:22.407Z,21.95
2022-08-20T07:25:56.577Z,22.06
2022-08-20T07:28:32.520Z,22.19
2022-08-20T07:31:24.408Z,22.52
2022-08-20T07:33:58.888Z,22.14
2022-08-20T07:36:35.612Z,22.05
2022-08-20T07:39:10.418Z,22.03
2022-08-20T07:41:49.017Z,21.95
2022-08-20T07:44:31.443Z,22.14
2022-08-20T07:47:06.572Z,22.44
2022-08-20T07:49:41.635Z,22.72
2022-08-20T07:52:17.790Z,23.11
2022-08-20T07:54:52.200Z,22.98
2022-08-20T07:57:26.433Z,22.50
2022-08-20T08:00:00.959Z,22.80
2022-08-20T08:02:35.318Z,22.87
2022-08-20T08:05:10.781Z,22.98
2022-08-20T08:07:47.099Z,23.16
2022-08-20T08:10:24.489Z,23.23
2022-08-20T08:13:02.059Z,23.33
2022-08-20T08:15:43.048Z,23.36
2022-08-20T08:18:22.223Z,23.12
2022-08-20T08:20:57.973Z,23.07
2022-08-20T08:23:34.765Z,23.02
2022-08-20T08:26:09.168Z,23.27
2022-08-20T08:28:50.891Z,23.44
2022-08-20T08:31:26.002Z,23.48
2022-08-20T08:34:00.803Z,23.58
2022-08-20T08:36:35.406Z,23.54
2022-08-20T08:39:12.172Z,23.28
2022-08-20T08:41:49.971Z,23.28
2022-08-20T08:44:27.406Z,23.33
2022-08-20T08:47:04.624Z,23.33
2022-08-20T08:49:38.816Z,23.46
2022-08-20T08:52:18.939Z,23.33
2022-08-20T08:54:59.376Z,23.32
2022-08-20T08:57:34.433Z,23.39
2022-08-20T09:00:14.848Z,23.29
2022-08-20T09:03:00.128Z,23.14
2022-08-20T09:05:41.367Z,23.00
2022-08-20T09:08:19.527Z,23.29
2022-08-20T09:10:55.652Z,22.89
2022-08-20T09:13:30.132Z,22.52
2022-08-20T09:16:04.784Z,22.28
2022-08-20T09:18:39.731Z,21.93
2022-08-20T09:21:14.616Z,21.89
2022-08-20T09:23:49.135Z,21.98
2022-08-20T09:26:27.296Z,22.07
2022-08-20T09:29:03.873Z,22.35
2022-08-20T09:31:38.971Z,22.06
2022-08-20T09:34:13.889Z,22.10
2022-08-20T09:36:48.042Z,21.78
2022-08-20T09:39:22.588Z,21.70
2022-08-20T09:42:08.179Z,21.90
2022-08-20T09:44:43.116Z,22.12
2022-08-20T09:47:17.868Z,22.20
2022-08-20T09:49:52.610Z,22.14
2022-08-20T09:52:28.740Z,22.43
2022-08-20T09:55:08.704Z,22.57
2022-08-20T09:57:52.302Z,22.53
2022-08-20T10:00:27.050Z,22.46
2022-08-20T10:03:03.404Z,22.73
2022-08-20T10:05:37.541Z,22.60
2022-08-20T10:08:13.032Z,22.99
2022-08-20T10:10:47.179Z,23.23
2022-08-20T10:13:22.996Z,23.50
2022-08-20T10:15:57.961Z,23.84
2022-08-20T10:18:32.426Z,23.79
2022-08-20T10:21:11.172Z,23.60
2022-08-20T10:23:45.661Z,23.68
2022-08-20T10:26:19.798Z,23.58
2022-08-20T10:28:55.958Z,23.57
2022-08-20T10:31:30.219Z,23.79
2022-08-20T10:34:04.912Z,23.83
2022-08-20T10:36:43.852Z,24.16
2022-08-20T10:39:18.525Z,24.25
2022-08-20T10:41:52.624Z,24.56
2022-08-20T10:44:28.455Z,23.97
2022-08-20T10:47:15.185Z,24.30
2022-08-20T10:49:50.995Z,23.85
2022-08-20T10:52:26.261Z,24.23
2022-08-20T10:55:00.855Z,24.39
2022-08-20T10:57:35.183Z,24.38
2022-08-20T11:00:13.527Z,24.12
2022-08-20T11:02:48.006Z,24.15
2022-08-20T11:05:22.436Z,24.43
2022-08-20T11:07:56.955Z,24.33
2022-08-20T11:10:34.121Z,24.44
2022-08-20T11:13:09.184Z,24.58
2022-08-20T11:15:45.884Z,24.84
2022-08-20T11:18:20.391Z,25.08
2022-08-20T11:20:54.848Z,25.06
2022-08-20T11:23:29.070Z,25.07
2022-08-20T11:26:05.203Z,24.99
2022-08-20T11:28:39.625Z,25.10
2022-08-20T11:31:15.495Z,25.42
2022-08-20T11:33:49.631Z,25.52
2022-08-20T11:36:26.481Z,25.56
2022-08-20T11:39:00.691Z,25.32
2022-08-20T11:41:35.148Z,25.42
2022-08-20T11:44:20.828Z,25.47
2022-08-20T11:47:00.053Z,25.60
2022-08-20T11:49:35.750Z,25.47
2022-08-20T11:52:10.312Z,25.18
2022-08-20T11:54:44.697Z,25.03
2022-08-20T11:57:23.138Z,25.21
2022-08-20T11:59:58.956Z,25.25
2022-08-20T12:02:34.959Z,24.94
2022-08-20T12:05:12.277Z,24.97
2022-08-20T12:07:46.700Z,24.90
2022-08-20T12:10:23.161Z,25.08
2022-08-20T12:12:57.594Z,24.96
2022-08-20T12:15:32.226Z,25.11
2022-08-20T12:18:09.742Z,24.94
2022-08-20T12:20:44.136Z,24.91
2022-08-20T12:23:18.296Z,24.96
2022-08-20T12:25:52.746Z,25.09
2022-08-20T12:28:26.910Z,25.12
2022-08-20T12:31:01.399Z,25.27
2022-08-20T12:33:36.969Z,25.29
2022-08-20T12:36:11.593Z,25.37
2022-08-20T12:38:45.716Z,25.53
2022-08-20T12:41:20.227Z,25.48
2022-08-20T12:43:54.575Z,25.46
2022-08-20T12:46:29.036Z,25.25
2022-08-20T12:49:04.806Z,25.28
2022-08-20T12:51:39.194Z,25.48
2022-08-20T12:54:13.339Z,25.46
2022-08-20T12:56:48.195Z,25.40
2022-08-20T12:59:26.039Z,25.40
2022-08-20T13:02:14.142Z,25.47
2022-08-20T13:04:54.525Z,25.47
2022-08-20T13:07:30.214Z,25.53
2022-08-20T13:10:06.565Z,25.54
2022-08-20T13:12:41.235Z,25.65
2022-08-20T13:15:15.445Z,25.96
2022-08-20T13:17:53.027Z,26.27
2022-08-20T13:20:31.690Z,26.32
2022-08-20T13:23:09.035Z,26.32
2022-08-20T13:25:43.199Z,26.37
2022-08-20T13:28:17.638Z,26.09
2022-08-20T13:30:52.043Z,25.99
2022-08-20T13:33:26.727Z,26.52
2022-08-20T13:36:02.509Z,26.53
2022-08-20T13:38:37.473Z,26.60
2022-08-20T13:41:11.734Z,26.43
2022-08-20T13:43:46.164Z,26.71
2022-08-20T13:46:20.422Z,26.42
2022-08-20T13:48:54.899Z,26.41
2022-08-20T13:51:30.532Z,26.43
2022-08-20T13:54:05.481Z,26.64
2022-08-20T13:56:44.887Z,26.83
2022-08-20T13:59:21.207Z,26.93
2022-08-20T14:01:55.368Z,26.84
2022-08-20T14:04:29.979Z,26.69
2022-08-20T14:07:13.165Z,26.75
2022-08-20T14:09:50.412Z,26.72
2022-08-20T14:12:25.485Z,26.99
2022-08-20T14:14:59.927Z,26.71
2022-08-20T14:17:36.724Z,26.93
2022-08-20T14:20:14.777Z,26.63
2022-08-20T14:22:50.612Z,26.74
2022-08-20T14:25:26.554Z,26.83
2022-08-20T14:28:09.908Z,26.94
2022-08-20T14:30:44.428Z,26.77
2022-08-20T14:33:18.688Z,26.68
2022-08-20T14:35:53.772Z,26.78
2022-08-20T14:38:29.516Z,26.43
2022-08-20T14:41:03.976Z,26.66
2022-08-20T14:43:38.168Z,26.47
2022-08-20T14:46:13.692Z,26.22
2022-08-20T14:48:53.273Z,26.44
2022-08-20T14:51:28.041Z,26.24
2022-08-20T14:54:03.653Z,26.30
2022-08-20T14:56:38.367Z,26.59
2022-08-20T14:59:12.883Z,26.53
2022-08-20T15:01:47.361Z,26.27
2022-08-20T15:04:21.571Z,26.52
2022-08-20T15:06:55.993Z,26.40
2022-08-20T15:09:37.930Z,26.43
2022-08-20T15:12:12.356Z,26.34
2022-08-20T15:14:47.989Z,26.38
2022-08-20T15:17:25.858Z,26.52
2022-08-20T15:20:02.992Z,26.41
2022-08-20T15:22:37.551Z,26.26
2022-08-20T15:25:16.615Z,26.07
2022-08-20T15:27:51.923Z,26.22
2022-08-20T15:30:26.393Z,26.09
2022-08-20T15:33:01.343Z,26.14
2022-08-20T15:35:36.172Z,26.23
2022-08-20T15:38:10.627Z,26.14
2022-08-20T15:40:46.615Z,26.15
2022-08-20T15:43:21.065Z,25.93
2022-08-20T15:45:55.689Z,25.96
2022-08-20T15:48:34.579Z,25.85
2022-08-20T15:51:22.092Z,25.97
2022-08-20T15:54:00.446Z,25.89
2022-08-20T15:56:50.757Z,26.10
2022-08-20T15:59:48.860Z,25.87
2022-08-20T16:02:46.662Z,25.66
2022-08-20T16:05:29.046Z,25.73
2022-08-20T16:08:15.448Z,25.76
2022-08-20T16:11:01.930Z,25.70
2022-08-20T16:13:40.469Z,25.82
2022-08-20T16:16:19.239Z,25.58
2022-08-20T16:18:55.279Z,25.79
2022-08-20T16:21:32.801Z,25.71
2022-08-20T16:24:08.587Z,25.69
2022-08-20T16:27:02.730Z,25.55
2022-08-20T16:29:49.775Z,25.60
2022-08-20T16:32:35.881Z,25.37
2022-08-20T16:35:29.860Z,25.51
2022-08-20T16:38:21.019Z,25.53
2022-08-20T16:41:00.894Z,25.30
2022-08-20T16:43:38.280Z,25.31
2022-08-20T16:46:19.729Z,25.26
2022-08-20T16:48:58.244Z,25.31
2022-08-20T16:51:37.724Z,25.34
2022-08-20T16:54:13.624Z,25.44
2022-08-20T16:56:50.230Z,25.37
2022-08-20T16:59:28.324Z,25.42
2022-08-20T17:02:10.093Z,25.41
2022-08-20T17:04:50.496Z,25.29
2022-08-20T17:07:46.219Z,25.27
2022-08-20T17:10:24.373Z,25.19
2022-08-20T17:13:01.653Z,25.22
2022-08-20T17:15:37.364Z,25.27
2022-08-20T17:18:22.100Z,25.12
2022-08-20T17:21:01.822Z,24.99
2022-08-20T17:23:54.610Z,25.01
2022-08-20T17:26:35.252Z,24.78
2022-08-20T17:29:14.965Z,24.90
2022-08-20T17:31:50.495Z,24.87
2022-08-20T17:34:28.637Z,24.81
2022-08-20T17:37:09.576Z,24.84
2022-08-20T17:39:48.697Z,24.86
2022-08-20T17:42:26.006Z,24.84
2022-08-20T17:45:09.290Z,24.79
2022-08-20T17:47:45.076Z,24.62
2022-08-20T17:50:31.046Z,24.62
2022-08-20T17:53:17.866Z,24.61
2022-08-20T17:56:00.711Z,24.58
2022-08-20T17:58:54.386Z,24.57
2022-08-20T18:01:30.294Z,24.54
2022-08-20T18:04:05.217Z,24.50
2022-08-20T18:06:50.238Z,24.49
2022-08-20T18:09:30.246Z,24.41
2022-08-20T18:12:33.329Z,24.36
2022-08-20T18:15:11.798Z,24.34
2022-08-20T18:18:25.504Z,24.29
2022-08-20T18:21:27.326Z,24.29
2022-08-20T18:24:08.123Z,24.26
2022-08-20T18:26:48.074Z,24.17
2022-08-20T18:29:27.649Z,24.18
2022-08-20T18:32:03.583Z,24.23
2022-08-20T18:34:42.184Z,24.23
2022-08-20T18:37:25.433Z,24.18
2022-08-20T18:40:15.536Z,24.24
2022-08-20T18:42:50.151Z,24.08
2022-08-20T18:45:33.063Z,24.01
2022-08-20T18:48:08.469Z,23.62
2022-08-20T18:50:49.010Z,23.71
2022-08-20T18:53:33.473Z,23.69
2022-08-20T18:56:13.674Z,23.70
2022-08-20T18:58:55.759Z,23.73
2022-08-20T19:01:35.321Z,23.78
2022-08-20T19:04:22.572Z,23.82
2022-08-20T19:07:00.205Z,23.87
2022-08-20T19:09:53.516Z,23.83
2022-08-20T19:13:16.346Z,23.93
2022-08-20T19:15:54.418Z,23.58
2022-08-20T19:18:35.068Z,23.43
2022-08-20T19:21:15.773Z,23.36
2022-08-20T19:23:55.203Z,23.32
2022-08-20T19:26:32.780Z,23.15
2022-08-20T19:29:12.313Z,23.04
2022-08-20T19:31:48.425Z,22.98
2022-08-20T19:34:25.825Z,22.77
2022-08-20T19:37:27.938Z,22.69
2022-08-20T19:39:57.874Z,22.64
2022-08-20T19:42:37.549Z,22.59
2022-08-20T19:45:19.879Z,22.84
2022-08-20T19:48:09.596Z,22.67
2022-08-20T19:50:51.327Z,22.58
2022-08-20T19:53:30.667Z,22.45
2022-08-20T19:56:11.176Z,22.52
2022-08-20T19:58:46.106Z,22.73
2022-08-20T20:01:22.851Z,22.60
2022-08-20T20:04:00.507Z,22.57
2022-08-20T20:06:38.557Z,22.32
2022-08-20T20:09:18.425Z,22.36
2022-08-20T20:11:56.214Z,22.60
2022-08-20T20:14:33.734Z,22.62
2022-08-20T20:17:14.768Z,22.56
2022-08-20T20:19:53.467Z,22.49
2022-08-20T20:22:29.896Z,22.41
2022-08-20T20:25:21.517Z,22.33
2022-08-20T20:27:59.679Z,22.54
2022-08-20T20:30:35.642Z,22.32
2022-08-20T20:33:18.415Z,22.36
2022-08-20T20:36:04.597Z,22.47
2022-08-20T20:38:56.056Z,22.39
2022-08-20T20:41:31.269Z,22.06
2022-08-20T20:44:08.610Z,21.98
2022-08-20T20:46:47.990Z,22.29
2022-08-20T20:49:26.728Z,22.23
2022-08-20T20:52:04.106Z,22.34
2022-08-20T20:54:42.111Z,22.17
2022-08-20T20:57:38.405Z,21.94
2022-08-20T21:00:17.145Z,21.95
2022-08-20T21:02:51.745Z,22.01
2022-08-20T21:05:28.856Z,22.01
2022-08-20T21:08:07.259Z,22.01
2022-08-20T21:10:43.404Z,21.75
2022-08-20T21:13:18.000Z,21.83
2022-08-20T21:15:52.262Z,21.81
2022-08-20T21:18:26.948Z,21.75
2022-08-20T21:21:02.594Z,21.82
2022-08-20T21:23:40.006Z,22.08
2022-08-20T21:26:16.163Z,22.00
2022-08-20T21:28:50.641Z,22.18
2022-08-20T21:31:27.294Z,21.96
2022-08-20T21:34:02.034Z,22.22
2022-08-20T21:36:37.925Z,21.85
2022-08-20T21:39:12.844Z,21.92
2022-08-20T21:41:47.444Z,21.76
2022-08-20T21:44:24.738Z,21.79
2022-08-20T21:47:00.466Z,21.95
2022-08-20T21:49:34.879Z,22.08
2022-08-20T21:52:10.419Z,22.10
2022-08-20T21:54:44.978Z,22.03
2022-08-20T21:57:21.386Z,22.22
2022-08-20T21:59:57.349Z,22.27
2022-08-20T22:02:32.298Z,22.36
2022-08-20T22:05:07.769Z,22.41
2022-08-20T22:07:44.698Z,22.34
2022-08-20T22:10:19.373Z,22.16
2022-08-20T22:12:53.476Z,22.05
2022-08-20T22:15:27.905Z,22.10
2022-08-20T22:18:02.430Z,21.71
2022-08-20T22:20:37.164Z,21.82
2022-08-20T22:23:13.504Z,21.78
2022-08-20T22:25:47.924Z,21.69
2022-08-20T22:28:22.316Z,21.94
2022-08-20T22:30:56.945Z,21.94
2022-08-20T22:33:32.941Z,21.96
2022-08-20T22:36:08.444Z,21.92
2022-08-20T22:38:43.998Z,21.81
2022-08-20T22:41:22.435Z,21.90
2022-08-20T22:43:57.421Z,22.02
2022-08-20T22:46:35.392Z,21.62
2022-08-20T22:49:13.111Z,20.97
2022-08-20T22:51:47.664Z,20.86
2022-08-20T22:54:25.095Z,20.84
2022-08-20T22:56:59.455Z,20.72
2022-08-20T22:59:33.970Z,20.80
2022-08-20T23:02:22.062Z,20.44
2022-08-20T23:04:56.194Z,20.39
2022-08-20T23:07:30.853Z,20.44
2022-08-20T23:10:07.225Z,20.56
2022-08-20T23:12:41.968Z,20.58
2022-08-20T23:15:16.486Z,20.26
2022-08-20T23:17:51.526Z,20.38
2022-08-20T23:20:25.741Z,20.25
2022-08-20T23:23:00.211Z,20.29
2022-08-20T23:25:36.626Z,20.27
2022-08-20T23:28:11.357Z,20.53
2022-08-20T23:30:45.514Z,20.47
2022-08-20T23:33:20.571Z,20.51
2022-08-20T23:35:54.631Z,20.36
2022-08-20T23:38:29.183Z,20.24
2022-08-20T23:41:04.716Z,20.22
2022-08-20T23:43:39.670Z,20.27
2022-08-20T23:46:14.250Z,20.26
2022-08-20T23:48:48.684Z,20.08
2022-08-20T23:51:22.993Z,20.09
2022-08-20T23:53:57.445Z,20.19
2022-08-20T23:56:33.006Z,20.15
2022-08-20T23:59:07.416Z,19.90
